Flight Track Log - Related Links

Times and Time Zones

All times are in EDT time to prevent confusion due to time zone crossing. See the UAL3773 flight status page for this flight to view local times or setup timezone preferences in your user account.

Time Position Orientation Groundspeed Altitude Reporting Facility
EDT Latitude Longitude Course Direction KTS MPH feet Rate Location/Type
Sat 02:16:07 PM 42.0000 -87.9500 90° East 176 203 2,100  Level Chicago TRACON
Sat 02:17:07 PM 42.0333 -87.9000 48° Northeast 227 261 4,700 2,368 Climbing Chicago TRACON
Sat 02:18:01 PM 42.0500 -87.8333 71° East 247 284 6,600 2,211 Climbing Chicago TRACON
Sat 02:19:00 PM 42.0756 -87.2002 78° East  Level FlightAware Approximate
Sat 02:20:00 PM 42.1016 -87.0236 77° East  Level FlightAware Approximate
Sat 02:20:17 PM 42.0606 -87.5883 87° East 305 351 11,700  Level Chicago Center
Sat 02:21:00 PM 42.1168 -86.8453 90° East  Level FlightAware Approximate
Sat 02:21:18 PM 42.0719 -87.4689 83° East 319 367 14,200  Level Chicago Center
Sat 02:22:20 PM 42.0847 -87.3397 82° East 343 395 15,600 1,113 Climbing Chicago Center
Sat 02:23:22 PM 42.0997 -87.1939 82° East 386 444 16,500 968 Climbing Chicago Center
Sat 02:24:24 PM 42.1150 -86.9986 84° East 435 501 17,600 871 Climbing Chicago Center
Sat 02:25:26 PM 42.1206 -86.8272 87° East 455 524 18,300 726 Climbing Chicago Center
Sat 02:26:28 PM 42.1264 -86.6689 87° East 473 544 19,100 1,016 Climbing Chicago Center
Sat 02:27:30 PM 42.1339 -86.4453 87° East 494 568 20,400 1,161 Climbing Chicago Center
Sat 02:28:32 PM 42.1408 -86.2556 87° East 504 580 21,500 1,122 Climbing Chicago Center
Sat 02:29:33 PM 42.1444 -86.0639 88° East 510 587 22,700 1,073 Climbing Chicago Center
Sat 02:30:35 PM 42.1428 -85.8856 91° East 515 593 23,700 1,113 Climbing Chicago Center
Sat 02:31:37 PM 42.1408 -85.6542 91° East 518 596 25,000 1,161 Climbing Chicago Center
Sat 02:32:39 PM 42.1392 -85.4597 91° East 522 601 26,100 1,306 Climbing Chicago Center
Sat 02:33:41 PM 42.1372 -85.2667 91° East 518 596 27,700 1,538 Climbing Chicago Center
Sat 02:33:57 PM 42.1400 -85.2042 87° East 518 596 28,100 1,421 Climbing Cleveland Center
Sat 02:34:57 PM 42.1372 -85.0136 91° East 512 589 29,500 1,100 Climbing Cleveland Center
Sat 02:35:57 PM 42.1319 -84.8200 92° East 512 589 30,300 700 Climbing Cleveland Center
Sat 02:36:57 PM 42.1311 -84.6686 90° East 512 589 30,900 800 Climbing Cleveland Center
Sat 02:37:57 PM 42.1328 -84.4361 89° East 518 596 31,900 850 Climbing Cleveland Center
Sat 02:38:57 PM 42.1453 -84.2464 85° East 513 590 32,600 550 Climbing Cleveland Center
Sat 02:39:57 PM 42.1681 -84.0544 81° East 518 596 33,000 200 Climbing Cleveland Center
Sat 02:40:57 PM 42.1881 -83.8706 82° East 527 606 33,000  Level Cleveland Center
Sat 02:41:57 PM 42.2103 -83.6669 82° East 538 619 33,000  Level Cleveland Center
Sat 02:42:57 PM 42.2267 -83.4378 84° East 550 633 33,000  Level Cleveland Center
Sat 02:43:57 PM 42.2317 -83.2306 88° East 555 639 33,000  Level Cleveland Center
Sat 02:44:57 PM 42.2317 -83.0397 90° East 555 639 33,000  Level Cleveland Center
Sat 02:45:57 PM 42.2319 -82.8294 90° East 555 639 33,000  Level Cleveland Center
Sat 02:46:57 PM 42.2336 -82.6219 89° East 555 639 33,000  Level Cleveland Center
Sat 02:47:57 PM 42.2350 -82.4144 89° East 549 632 33,000  Level Cleveland Center
Sat 02:48:57 PM 42.2319 -82.2069 91° East 549 632 33,000  Level Cleveland Center
Sat 02:49:57 PM 42.2347 -81.9994 89° East 549 632 33,000  Level Cleveland Center
Sat 02:50:57 PM 42.2350 -81.7919 90° East 549 632 33,000  Level Cleveland Center
Sat 02:51:57 PM 42.2308 -81.5647 91° East 554 638 33,000  Level Cleveland Center
Sat 02:52:57 PM 42.2303 -81.3600 90° East 549 632 33,000  Level Cleveland Center
Sat 02:53:57 PM 42.2275 -81.1525 91° East 549 632 33,000  Level Cleveland Center
Sat 02:54:57 PM 42.2303 -80.9422 89° East 549 632 33,000  Level Cleveland Center
Sat 02:55:57 PM 42.2475 -80.7347 84° East 554 638 33,000  Level Cleveland Center
Sat 02:56:57 PM 42.2642 -80.5328 84° East 554 638 33,000  Level Cleveland Center
Sat 02:57:57 PM 42.2806 -80.3278 84° East 554 638 33,000  Level Cleveland Center
Sat 02:58:57 PM 42.2967 -80.1200 84° East 559 643 33,000  Level Cleveland Center
Sat 02:59:57 PM 42.3103 -79.9206 85° East 547 629 33,000  Level Cleveland Center
Sat 03:00:57 PM 42.3278 -79.7181 83° East 542 624 33,000  Level Cleveland Center
Sat 03:01:57 PM 42.3428 -79.5128 84° East 542 624 33,000  Level Cleveland Center
Sat 03:02:57 PM 42.3553 -79.3133 85° East 542 624 33,000  Level Cleveland Center
Sat 03:03:57 PM 42.3694 -79.1078 85° East 542 624 33,000  Level Cleveland Center
Sat 03:04:57 PM 42.3756 -78.9447 87° East 542 624 33,000  Level Cleveland Center
Sat 03:05:57 PM 42.3931 -78.7164 84° East 542 624 33,000  Level Cleveland Center
Sat 03:06:57 PM 42.4083 -78.5078 84° East 548 631 33,000  Level Cleveland Center
Sat 03:07:57 PM 42.4189 -78.3022 86° East 548 631 33,000  Level Cleveland Center
Sat 03:08:57 PM 42.4314 -78.0964 85° East 548 631 33,000  Level Cleveland Center
Sat 03:09:57 PM 42.4411 -77.8878 86° East 553 636 33,000  Level Cleveland Center
Sat 03:10:57 PM 42.4525 -77.6619 86° East 553 636 33,000  Level Cleveland Center
Sat 03:13:24 PM 42.4803 -77.1422 86° East 570 656 33,000  Level Boston Center
Sat 03:14:24 PM 42.4906 -76.9347 86° East 557 641 33,000  Level Boston Center
Sat 03:15:24 PM 42.4989 -76.7239 87° East 552 635 33,000  Level Boston Center
Sat 03:16:24 PM 42.5108 -76.5133 86° East 552 635 33,000 -250 Level Boston Center
Sat 03:17:24 PM 42.4994 -76.3042 94° East 547 629 32,500 -750 Descending Boston Center
Sat 03:18:24 PM 42.4461 -76.1517 115° Southeast 507 583 31,500 -800 Descending Boston Center
Sat 03:19:24 PM 42.3786 -75.9817 118° Southeast 499 574 30,900 -250 Descending Boston Center
Sat 03:20:24 PM 42.3678 -75.7817 94° East 514 592 31,000 50 Climbing Boston Center
Sat 03:21:24 PM 42.3633 -75.5733 92° East 535 616 31,000 -100 Level Boston Center
Sat 03:22:24 PM 42.3583 -75.3708 92° East 541 623 30,800 -650 Descending Boston Center
Sat 03:23:24 PM 42.3511 -75.1625 93° East 547 629 29,700 -900 Descending Boston Center
Sat 03:24:24 PM 42.3453 -74.9628 92° East 547 629 29,000 -350 Descending Boston Center
Sat 03:25:24 PM 42.3392 -74.7631 92° East 535 616 29,000  Level Boston Center
Sat 03:26:24 PM 42.3306 -74.5661 93° East 535 616 29,000  Level Boston Center
Sat 03:27:24 PM 42.3258 -74.3636 92° East 535 616 29,000 -50 Level Boston Center
Sat 03:28:24 PM 42.3164 -74.1614 94° East 535 616 28,900 -350 Descending Boston Center
Sat 03:29:24 PM 42.3069 -73.9561 93° East 535 616 28,300 -700 Descending Boston Center
Sat 03:30:24 PM 42.2989 -73.7539 93° East 535 616 27,500 -1,300 Descending Boston Center
Sat 03:31:24 PM 42.2911 -73.5233 93° East 554 638 25,700 -1,500 Descending Boston Center
Sat 03:32:24 PM 42.2842 -73.3661 93° East 549 632 24,500 -1,400 Descending Boston Center
Sat 03:33:24 PM 42.2625 -73.1611 98° East 524 603 22,900 -1,800 Descending Boston Center
Sat 03:34:24 PM 42.1864 -73.0200 126° Southeast 464 534 20,900 -1,900 Descending Boston Center
Sat 03:35:24 PM 42.0869 -72.8933 137° Southeast 451 519 19,100 -950 Descending Boston Center
Sat 03:36:24 PM 42.0039 -72.7781 134° Southeast 439 505 19,000 -50 Descending Boston Center
Sat 03:37:24 PM 41.9231 -72.6550 131° Southeast 433 498 19,000  Level Boston Center
Sat 03:38:24 PM 41.8564 -72.5378 127° Southeast 433 498 19,000 -589 Level Boston Center
Sat 03:39:16 PM 41.7919 -72.4206 126° Southeast 436 502 17,900 -2,049 Descending Boston Center
Sat 03:39:46 PM 41.7500 -72.3511 129° Southeast 438 504 16,200 -3,441 Descending Boston Center
Sat 03:40:24 PM 41.7083 -72.2650 123° Southeast 443 510 14,000 -3,600 Descending Boston Center
Sat 03:40:41 PM 41.6853 -72.2317 133° Southeast 430 495 12,900 -2,800 Descending Boston Center
Sat 03:41:24 PM 41.6456 -72.1567 125° Southeast 423 487 11,200 -1,900 Descending Boston Center
Sat 03:41:41 PM 41.6183 -72.1125 129° Southeast 411 473 11,000 -200 Descending Boston Center
Sat 03:42:24 PM 41.5722 -72.0267 126° Southeast 401 461 11,000 -295 Level Boston Center
Sat 03:42:42 PM 41.5556 -71.9989 129° Southeast 382 440 10,700 -900 Descending Boston Center
Sat 03:43:24 PM 41.5303 -71.9217 114° Southeast 380 437 10,100 -896 Descending Boston Center
Sat 03:43:49 PM 41.5111 -71.8664 115° Southeast 322 371 9,700 -1,000 Descending Boston Center
Sat 03:44:24 PM 41.5067 -71.7997 95° East 306 352 9,100 -1,100 Descending Boston Center
Sat 03:44:49 PM 41.5314 -71.7578 52° Northeast 325 374 8,600 -1,000 Descending Boston Center
Sat 03:45:24 PM 41.5706 -71.7131 40° Northeast 286 329 8,100 -1,082 Descending Boston Center
Sat 03:45:50 PM 41.5975 -71.6794 43° Northeast 316 364 7,500 -1,172 Descending Boston Center
Sat 03:46:51 PM 41.6639 -71.6147 36° Northeast 291 335 6,400 -1,149 Descending Boston Center
Sat 03:47:24 PM 41.7011 -71.5836 32° Northeast 289 333 5,700 -1,200 Descending Boston Center
Sat 03:47:51 PM 41.7322 -71.5583 31° Northeast 268 308 5,200 -700 Descending Boston Center
Sat 03:48:24 PM 41.7550 -71.5356 37° Northeast 267 307 5,000 -689 Descending Boston Center
Sat 03:48:52 PM 41.7858 -71.5103 31° Northeast 229 264 4,500 -1,600 Descending Boston Center
Sat 03:49:24 PM 41.8108 -71.4847 37° Northeast 228 262 3,400 -2,063 Descending Boston Center

Login

Don't have an account? Register now (free) for customized features, flight alerts, and more!